Byron, New York
Current Conditions -  °F | °C
As of 12:54 AM on Wednesday 22 Oct 2014 (Local Time) from KROC Reporting Station
Overcast Overcast  
Wind Chill: 40°   Ceiling: 1100
Heat Index: 47°   Visibility: 10mi
Dew Point: 44°   Wind: 18mph
Humidity: 90%   Direction: 50°NE
Pressure: 30.08"   Gusts: 24mph
Location:  43.08°N, 78.06°W
Report Text: KROC 220454Z 05016G21KT 10SM OVC011 08/07 A3008 RMK AO2 DZB03E51 SLP191 P0000 T00830067 401280083
Loading
Personal Weather Stations






























Interactive Weather Map
Tropical Storm Tracking
New forecast layout! Learn more

10-Day Weather Forecast

Advertisements
Track Severe Weather on mobile